createdAt,value
2023-05-16T00:00:48.599Z,61.47
2023-05-16T00:03:15.103Z,60.30
2023-05-16T00:05:41.340Z,57.67
2023-05-16T00:08:07.587Z,58.83
2023-05-16T00:10:33.913Z,56.90
2023-05-16T00:13:04.171Z,58.50
2023-05-16T00:15:33.028Z,57.63
2023-05-16T00:18:00.993Z,58.30
2023-05-16T00:20:27.481Z,55.22
2023-05-16T00:25:23.783Z,56.88
2023-05-16T00:27:50.869Z,55.53
2023-05-16T00:30:17.227Z,55.08
2023-05-16T00:32:47.490Z,53.95
2023-05-16T00:35:13.765Z,53.85
2023-05-16T00:37:41.257Z,54.88
2023-05-16T00:40:07.494Z,52.28
2023-05-16T00:42:34.163Z,53.83
2023-05-16T00:45:00.476Z,50.97
2023-05-16T00:47:29.917Z,52.35
2023-05-16T00:49:58.438Z,49.70
2023-05-16T00:52:24.636Z,50.25
2023-05-16T00:54:53.967Z,49.13
2023-05-16T00:57:22.264Z,51.08
2023-05-16T00:59:48.797Z,50.67
2023-05-16T01:04:45.617Z,49.28
2023-05-16T01:07:13.375Z,46.92
2023-05-16T01:09:39.634Z,49.55
2023-05-16T01:12:05.929Z,47.72
2023-05-16T01:14:37.582Z,46.08
2023-05-16T01:17:03.836Z,47.13
2023-05-16T01:19:30.125Z,45.08
2023-05-16T01:21:56.375Z,45.15
2023-05-16T01:24:22.598Z,45.08
2023-05-16T01:26:48.987Z,43.90
2023-05-16T01:29:15.615Z,43.38
2023-05-16T01:31:41.874Z,42.78
2023-05-16T01:34:09.967Z,44.70
2023-05-16T01:36:37.266Z,42.85
2023-05-16T01:39:05.419Z,40.63
2023-05-16T01:41:31.903Z,43.08
2023-05-16T01:44:00.659Z,41.67
2023-05-16T01:46:27.482Z,41.50
2023-05-16T01:48:53.765Z,40.83
2023-05-16T01:51:20.003Z,40.17
2023-05-16T01:53:46.273Z,41.00
2023-05-16T01:56:12.654Z,39.80
2023-05-16T01:58:38.909Z,40.17
2023-05-16T02:01:08.057Z,39.35
2023-05-16T02:03:34.311Z,37.10
2023-05-16T02:06:00.644Z,38.78
2023-05-16T02:08:27.211Z,36.83
2023-05-16T02:10:57.375Z,38.65
2023-05-16T02:13:23.621Z,38.03
2023-05-16T02:15:49.849Z,38.35
2023-05-16T02:18:16.154Z,37.28
2023-05-16T02:20:42.341Z,37.88
2023-05-16T02:23:08.566Z,36.42
2023-05-16T02:25:34.966Z,37.95
2023-05-16T02:28:02.141Z,36.28
2023-05-16T02:30:29.297Z,36.00
2023-05-16T02:32:55.571Z,34.50
2023-05-16T02:35:28.387Z,36.03
2023-05-16T02:37:55.005Z,34.50
2023-05-16T02:40:21.315Z,36.13
2023-05-16T02:42:47.608Z,35.47
2023-05-16T02:45:13.839Z,34.20
2023-05-16T02:47:42.366Z,31.58
2023-05-16T02:50:08.630Z,32.38
2023-05-16T02:52:34.963Z,32.35
2023-05-16T02:57:50.258Z,32.55
2023-05-16T03:02:49.091Z,31.80
2023-05-16T03:05:18.093Z,30.58
2023-05-16T03:07:44.358Z,31.13
2023-05-16T03:10:10.606Z,32.75
2023-05-16T03:12:39.897Z,29.27
2023-05-16T03:15:06.161Z,30.15
2023-05-16T03:20:04.796Z,30.13
2023-05-16T03:22:31.813Z,29.65
2023-05-16T03:24:58.041Z,31.15
2023-05-16T03:27:28.715Z,29.63
2023-05-16T03:29:54.954Z,28.23
2023-05-16T03:32:21.333Z,28.88
2023-05-16T03:34:47.606Z,27.27
2023-05-16T03:37:13.814Z,28.77
2023-05-16T03:39:42.047Z,29.70
2023-05-16T03:42:11.874Z,29.00
2023-05-16T03:44:38.113Z,28.17
2023-05-16T03:47:04.348Z,28.20
2023-05-16T03:49:30.550Z,27.13
2023-05-16T03:51:57.208Z,28.58
2023-05-16T03:54:23.430Z,26.58
2023-05-16T03:56:52.649Z,27.67
2023-05-16T03:59:18.978Z,27.83
2023-05-16T04:01:45.240Z,26.92
2023-05-16T04:04:12.513Z,26.58
2023-05-16T04:06:38.724Z,27.23
2023-05-16T04:09:05.311Z,27.08
2023-05-16T04:11:31.764Z,25.63
2023-05-16T04:13:58.228Z,25.38
2023-05-16T04:16:24.555Z,26.77
2023-05-16T04:18:52.244Z,25.35
2023-05-16T04:21:18.525Z,26.10
2023-05-16T04:23:44.768Z,26.55
2023-05-16T04:26:11.084Z,23.48
2023-05-16T04:28:37.938Z,25.20
2023-05-16T04:31:04.254Z,25.63
2023-05-16T04:33:30.521Z,25.08
2023-05-16T04:35:56.726Z,23.17
2023-05-16T04:38:25.186Z,23.40
2023-05-16T04:40:51.426Z,25.23
2023-05-16T04:43:21.311Z,24.77
2023-05-16T04:45:47.632Z,23.90
2023-05-16T04:48:17.364Z,25.15
2023-05-16T04:50:46.372Z,22.90
2023-05-16T04:53:12.599Z,23.70
2023-05-16T04:55:42.168Z,20.87
2023-05-16T04:58:08.390Z,19.98
2023-05-16T05:00:35.232Z,19.80
2023-05-16T05:03:01.644Z,17.92
2023-05-16T05:05:28.123Z,18.25
2023-05-16T05:07:54.661Z,19.92
2023-05-16T05:10:20.875Z,20.75
2023-05-16T05:12:49.291Z,19.23
2023-05-16T05:15:15.504Z,20.17
2023-05-16T05:17:41.817Z,21.15
2023-05-16T05:20:09.482Z,20.63
2023-05-16T05:22:36.093Z,21.05
2023-05-16T05:25:03.080Z,21.23
2023-05-16T05:27:30.447Z,20.42
2023-05-16T05:29:59.239Z,19.65
2023-05-16T05:32:27.630Z,20.38
2023-05-16T05:34:54.033Z,20.35
2023-05-16T05:37:20.351Z,20.98
2023-05-16T05:39:46.719Z,21.00
2023-05-16T05:42:13.071Z,20.08
2023-05-16T05:44:42.598Z,20.43
2023-05-16T05:47:09.076Z,21.13
2023-05-16T05:49:35.291Z,20.13
2023-05-16T05:52:01.566Z,19.02
2023-05-16T05:54:29.026Z,19.48
2023-05-16T05:56:55.326Z,18.90
2023-05-16T05:59:21.684Z,20.13
2023-05-16T06:01:47.929Z,20.35
2023-05-16T06:04:14.171Z,20.95
2023-05-16T06:06:43.989Z,19.52
2023-05-16T06:09:10.244Z,20.27
2023-05-16T06:11:36.560Z,18.83
2023-05-16T06:14:02.892Z,20.23
2023-05-16T06:16:29.368Z,18.52
2023-05-16T06:18:55.637Z,18.98
2023-05-16T06:21:22.058Z,18.77
2023-05-16T06:23:49.252Z,18.60
2023-05-16T06:26:15.500Z,18.92
2023-05-16T06:28:41.759Z,18.95
2023-05-16T06:31:12.914Z,18.85
2023-05-16T06:33:39.140Z,19.58
2023-05-16T06:36:10.130Z,17.80
2023-05-16T06:38:37.327Z,19.00
2023-05-16T06:41:03.852Z,18.55
2023-05-16T06:43:30.112Z,19.52
2023-05-16T06:48:31.771Z,17.52
2023-05-16T06:50:58.110Z,17.98
2023-05-16T06:53:24.344Z,18.27
2023-05-16T06:55:50.634Z,18.00
2023-05-16T06:58:16.870Z,16.88
2023-05-16T07:00:45.167Z,18.45
2023-05-16T07:03:13.090Z,18.58
2023-05-16T07:05:39.675Z,17.30
2023-05-16T07:08:10.891Z,17.63
2023-05-16T07:10:37.163Z,17.83
2023-05-16T07:13:06.228Z,17.92
2023-05-16T07:15:32.550Z,17.10
2023-05-16T07:18:01.703Z,17.55
2023-05-16T07:20:30.333Z,16.65
2023-05-16T07:22:56.701Z,17.73
2023-05-16T07:25:25.866Z,18.63
2023-05-16T07:27:57.570Z,17.77
2023-05-16T07:30:27.025Z,18.23
2023-05-16T07:32:53.530Z,16.70
2023-05-16T07:35:19.831Z,16.13
2023-05-16T07:37:46.133Z,17.73
2023-05-16T07:40:12.480Z,17.52
2023-05-16T07:42:38.861Z,17.30
2023-05-16T07:45:05.194Z,16.63
2023-05-16T07:47:31.505Z,16.95
2023-05-16T07:49:57.795Z,16.65
2023-05-16T07:52:24.463Z,17.70
2023-05-16T07:54:50.720Z,16.27
2023-05-16T07:57:17.026Z,16.83
2023-05-16T07:59:43.489Z,15.95
2023-05-16T08:02:11.284Z,16.60
2023-05-16T08:04:37.541Z,17.45
2023-05-16T08:07:03.802Z,16.73
2023-05-16T08:09:30.071Z,16.33
2023-05-16T08:11:56.414Z,16.80
2023-05-16T08:14:22.733Z,16.60
2023-05-16T08:16:48.991Z,15.75
2023-05-16T08:19:15.683Z,17.00
2023-05-16T08:21:41.984Z,15.73
2023-05-16T08:24:08.235Z,16.27
2023-05-16T08:26:34.491Z,15.82
2023-05-16T08:29:02.618Z,14.88
2023-05-16T08:31:31.966Z,15.25
2023-05-16T08:33:58.332Z,15.77
2023-05-16T08:36:25.030Z,16.20
2023-05-16T08:38:55.715Z,16.63
2023-05-16T08:41:21.997Z,15.98
2023-05-16T08:43:48.390Z,16.90
2023-05-16T08:46:14.708Z,14.77
2023-05-16T08:48:43.129Z,15.90
2023-05-16T08:51:09.372Z,16.25
2023-05-16T08:53:35.762Z,16.27
2023-05-16T08:56:05.610Z,15.63
2023-05-16T08:58:31.914Z,15.73
2023-05-16T09:01:01.209Z,15.13
2023-05-16T09:03:27.872Z,15.38
2023-05-16T09:05:55.331Z,15.70
2023-05-16T09:08:21.591Z,15.95
2023-05-16T09:10:49.207Z,15.00
2023-05-16T09:13:16.847Z,15.07
2023-05-16T09:15:43.093Z,16.45
2023-05-16T09:18:11.697Z,16.17
2023-05-16T09:20:38.004Z,15.32
2023-05-16T09:23:04.283Z,15.98
2023-05-16T09:25:31.799Z,15.50
2023-05-16T09:27:58.663Z,14.70
2023-05-16T09:30:24.936Z,15.68
2023-05-16T09:32:53.281Z,15.30
2023-05-16T09:35:35.107Z,16.13
2023-05-16T09:38:12.089Z,15.30
2023-05-16T09:40:38.348Z,14.75
2023-05-16T09:43:05.085Z,15.00
2023-05-16T09:45:31.415Z,14.55
2023-05-16T09:47:57.996Z,13.18
2023-05-16T09:50:24.291Z,15.00
2023-05-16T09:52:50.563Z,14.77
2023-05-16T09:55:19.544Z,14.13
2023-05-16T09:57:45.816Z,15.02
2023-05-16T10:00:13.527Z,14.85
2023-05-16T10:02:40.042Z,14.63
2023-05-16T10:05:06.333Z,14.10
2023-05-16T10:07:35.140Z,14.40
2023-05-16T10:10:01.421Z,13.93
2023-05-16T10:12:27.717Z,14.27
2023-05-16T10:14:53.978Z,15.00
2023-05-16T10:17:20.245Z,13.95
2023-05-16T10:19:49.229Z,13.80
2023-05-16T10:22:15.577Z,13.77
2023-05-16T10:24:41.824Z,13.52
2023-05-16T10:27:08.232Z,13.48
2023-05-16T10:29:46.559Z,13.77
2023-05-16T10:32:19.644Z,13.70
2023-05-16T10:34:45.998Z,12.93
2023-05-16T10:37:12.779Z,12.60
2023-05-16T10:39:39.044Z,13.02
2023-05-16T10:42:05.349Z,12.95
2023-05-16T10:44:33.888Z,13.40
2023-05-16T10:47:00.235Z,13.55
2023-05-16T10:49:26.583Z,12.25
2023-05-16T10:51:53.313Z,12.68
2023-05-16T10:54:19.579Z,13.18
2023-05-16T10:56:48.067Z,13.77
2023-05-16T10:59:14.359Z,12.38
2023-05-16T11:01:41.913Z,12.63
2023-05-16T11:04:09.367Z,13.63
2023-05-16T11:06:35.782Z,12.23
2023-05-16T11:09:02.092Z,12.35
2023-05-16T11:11:28.369Z,12.65
2023-05-16T11:13:54.643Z,11.85
2023-05-16T11:16:20.927Z,11.80
2023-05-16T11:18:48.373Z,12.00
2023-05-16T11:21:18.100Z,12.02
2023-05-16T11:23:44.382Z,11.55
2023-05-16T11:26:11.403Z,10.45
2023-05-16T11:28:40.089Z,10.63
2023-05-16T11:31:07.177Z,11.80
2023-05-16T11:33:35.922Z,11.48
2023-05-16T11:36:14.616Z,12.10
2023-05-16T11:38:42.913Z,12.25
2023-05-16T11:41:09.273Z,11.75
2023-05-16T11:43:38.174Z,12.32
2023-05-16T11:46:05.353Z,14.88
2023-05-16T11:48:37.264Z,14.10
2023-05-16T11:51:03.543Z,13.93
2023-05-16T11:53:29.855Z,12.57
2023-05-16T11:55:59.466Z,14.05
2023-05-16T11:58:26.226Z,12.95
2023-05-16T12:00:52.547Z,17.15
2023-05-16T12:03:18.919Z,17.73
2023-05-16T12:05:45.327Z,19.42
2023-05-16T12:08:13.905Z,17.55
2023-05-16T12:10:40.168Z,18.38
2023-05-16T12:13:08.823Z,15.10
2023-05-16T12:15:40.400Z,15.35
2023-05-16T12:18:06.683Z,14.35
2023-05-16T12:20:33.030Z,14.20
2023-05-16T12:23:01.246Z,14.70
2023-05-16T12:25:27.856Z,12.88
2023-05-16T12:27:54.362Z,13.43
2023-05-16T12:30:20.669Z,14.15
2023-05-16T12:32:47.196Z,12.18
2023-05-16T12:35:13.751Z,12.85
2023-05-16T12:37:42.876Z,12.82
2023-05-16T12:40:09.600Z,11.55
2023-05-16T12:42:35.861Z,12.02
2023-05-16T12:45:05.651Z,12.57
2023-05-16T12:47:33.482Z,13.48
2023-05-16T12:49:59.737Z,11.95
2023-05-16T12:52:26.091Z,12.73
2023-05-16T12:54:52.363Z,12.63
2023-05-16T12:57:22.064Z,12.60
2023-05-16T12:59:53.349Z,12.15
2023-05-16T13:02:19.658Z,11.98
2023-05-16T13:04:45.929Z,11.88
2023-05-16T13:07:12.191Z,12.50
2023-05-16T13:09:38.454Z,12.00
2023-05-16T13:12:04.775Z,12.43
2023-05-16T13:14:31.034Z,12.50
2023-05-16T13:16:57.349Z,13.95
2023-05-16T13:19:23.702Z,11.75
2023-05-16T13:21:51.213Z,12.45
2023-05-16T13:24:17.473Z,12.10
2023-05-16T13:26:45.549Z,12.98
2023-05-16T13:29:15.417Z,11.98
2023-05-16T13:31:41.805Z,12.07
2023-05-16T13:34:08.068Z,11.30
2023-05-16T13:36:49.268Z,12.02
2023-05-16T13:39:20.926Z,12.38
2023-05-16T13:41:48.770Z,12.25
2023-05-16T13:44:15.689Z,11.68
2023-05-16T13:46:41.945Z,12.38
2023-05-16T13:49:09.685Z,12.15
2023-05-16T13:54:06.388Z,11.48
2023-05-16T13:56:32.619Z,12.07
2023-05-16T13:59:05.815Z,11.40
2023-05-16T14:01:33.062Z,11.45
2023-05-16T14:04:01.480Z,11.65
2023-05-16T14:06:27.864Z,12.13
2023-05-16T14:08:54.807Z,11.93
2023-05-16T14:11:28.459Z,12.55
2023-05-16T14:13:55.601Z,12.05
2023-05-16T14:16:21.887Z,10.70
2023-05-16T14:18:48.191Z,10.82
2023-05-16T14:21:14.546Z,11.20
2023-05-16T14:23:40.816Z,11.43
2023-05-16T14:26:07.830Z,12.02
2023-05-16T14:28:34.260Z,10.70
2023-05-16T14:31:00.567Z,11.00
2023-05-16T14:33:26.811Z,10.32
2023-05-16T14:35:57.131Z,10.73
2023-05-16T14:38:23.534Z,10.63
2023-05-16T14:40:49.802Z,9.45
2023-05-16T14:43:16.036Z,10.05
2023-05-16T14:45:47.630Z,10.38
2023-05-16T14:48:13.921Z,9.98
2023-05-16T14:50:42.177Z,10.20
2023-05-16T14:53:11.398Z,9.77
2023-05-16T14:55:41.315Z,10.90
2023-05-16T14:58:09.367Z,9.60
2023-05-16T15:00:37.147Z,10.65
2023-05-16T15:03:07.161Z,9.20
2023-05-16T15:05:33.460Z,10.68
2023-05-16T15:10:30.662Z,9.23
2023-05-16T15:12:58.710Z,8.85
2023-05-16T15:15:24.968Z,9.38
2023-05-16T15:17:51.607Z,9.60
2023-05-16T15:20:20.507Z,10.02
2023-05-16T15:22:52.315Z,8.68
2023-05-16T15:25:19.376Z,9.10
2023-05-16T15:27:49.643Z,8.70
2023-05-16T15:30:17.561Z,9.07
2023-05-16T15:32:43.958Z,9.45
2023-05-16T15:35:10.284Z,7.70
2023-05-16T15:37:37.144Z,8.50
2023-05-16T15:40:03.423Z,7.93
2023-05-16T15:42:29.867Z,8.38
2023-05-16T15:44:56.133Z,8.55
2023-05-16T15:47:22.381Z,8.00
2023-05-16T15:49:48.671Z,8.45
2023-05-16T15:52:15.609Z,8.60
2023-05-16T15:54:41.899Z,8.07
2023-05-16T15:57:09.674Z,8.57
2023-05-16T15:59:36.021Z,8.27
2023-05-16T16:02:03.437Z,8.55
2023-05-16T16:04:29.742Z,8.77
2023-05-16T16:06:56.044Z,7.55
2023-05-16T16:09:22.317Z,7.82
2023-05-16T16:11:48.608Z,7.03
2023-05-16T16:14:15.005Z,8.15
2023-05-16T16:16:44.608Z,8.20
2023-05-16T16:19:11.047Z,8.35
2023-05-16T16:21:39.391Z,7.63
2023-05-16T16:24:05.682Z,7.57
2023-05-16T16:26:36.349Z,7.25
2023-05-16T16:29:02.591Z,7.75
2023-05-16T16:31:32.457Z,7.93
2023-05-16T16:34:00.940Z,7.22
2023-05-16T16:36:27.289Z,7.53
2023-05-16T16:38:53.930Z,7.68
2023-05-16T16:41:20.961Z,7.72
2023-05-16T16:43:47.221Z,7.30
2023-05-16T16:46:16.032Z,7.88
2023-05-16T16:48:42.369Z,7.82
2023-05-16T16:51:10.661Z,7.53
2023-05-16T16:53:37.138Z,7.38
2023-05-16T16:56:03.385Z,6.82
2023-05-16T16:58:31.942Z,7.65
2023-05-16T17:01:04.551Z,7.00
2023-05-16T17:03:31.009Z,7.13
2023-05-16T17:05:57.377Z,6.60
2023-05-16T17:08:28.829Z,7.35
2023-05-16T17:11:00.415Z,6.60
2023-05-16T17:13:29.600Z,6.93
2023-05-16T17:16:00.537Z,6.70
2023-05-16T17:18:27.014Z,6.65
2023-05-16T17:20:58.980Z,6.60
2023-05-16T17:23:26.063Z,6.32
2023-05-16T17:25:52.332Z,6.85
2023-05-16T17:28:18.584Z,6.80
2023-05-16T17:30:44.848Z,6.47
2023-05-16T17:33:11.209Z,6.47
2023-05-16T17:35:38.342Z,6.97
2023-05-16T17:38:04.627Z,6.70
2023-05-16T17:40:30.914Z,6.60
2023-05-16T17:42:57.802Z,6.68
2023-05-16T17:45:24.202Z,6.90
2023-05-16T17:47:51.373Z,6.22
2023-05-16T17:50:19.772Z,6.18
2023-05-16T17:52:49.709Z,6.50
2023-05-16T17:55:16.021Z,5.93
2023-05-16T17:57:42.625Z,6.53
2023-05-16T18:00:09.455Z,6.47
2023-05-16T18:02:38.631Z,6.20
2023-05-16T18:05:07.208Z,6.00
2023-05-16T18:07:33.635Z,6.57
2023-05-16T18:10:00.203Z,5.65
2023-05-16T18:12:26.451Z,6.32
2023-05-16T18:14:52.745Z,6.65
2023-05-16T18:17:22.256Z,6.13
2023-05-16T18:19:52.070Z,5.85
2023-05-16T18:22:20.415Z,6.20
2023-05-16T18:24:46.891Z,5.72
2023-05-16T18:27:15.205Z,6.07
2023-05-16T18:29:41.494Z,5.53
2023-05-16T18:32:07.821Z,6.55
2023-05-16T18:34:34.084Z,6.00
2023-05-16T18:37:00.397Z,5.82
2023-05-16T18:39:27.372Z,6.45
2023-05-16T18:41:54.677Z,5.15
2023-05-16T18:44:20.961Z,5.28
2023-05-16T18:46:48.666Z,5.75
2023-05-16T18:49:14.998Z,5.18
2023-05-16T18:51:41.354Z,5.20
2023-05-16T18:54:07.603Z,6.05
2023-05-16T18:56:37.427Z,5.82
2023-05-16T18:59:03.742Z,5.03
2023-05-16T19:01:30.085Z,5.75
2023-05-16T19:03:56.634Z,5.50
2023-05-16T19:06:28.053Z,5.03
2023-05-16T19:08:56.106Z,5.45
2023-05-16T19:11:22.436Z,5.60
2023-05-16T19:13:48.715Z,5.20
2023-05-16T19:16:19.808Z,4.25
2023-05-16T19:18:46.190Z,5.18
2023-05-16T19:21:12.655Z,5.20
2023-05-16T19:23:38.994Z,5.40
2023-05-16T19:26:05.329Z,4.93
2023-05-16T19:28:31.699Z,5.18
2023-05-16T19:31:02.718Z,4.82
2023-05-16T19:33:29.015Z,4.75
2023-05-16T19:35:55.268Z,4.82
2023-05-16T19:38:24.000Z,5.35
2023-05-16T19:40:50.273Z,5.20
2023-05-16T19:43:16.562Z,4.90
2023-05-16T19:45:42.845Z,4.47
2023-05-16T19:48:11.356Z,4.05
2023-05-16T19:50:37.689Z,4.28
2023-05-16T19:53:03.951Z,5.22
2023-05-16T19:55:33.108Z,4.57
2023-05-16T19:57:59.594Z,4.00
2023-05-16T20:00:27.394Z,4.78
2023-05-16T20:02:56.296Z,4.60
2023-05-16T20:05:27.020Z,4.40
2023-05-16T20:07:54.993Z,4.30
2023-05-16T20:10:22.037Z,4.18
2023-05-16T20:12:49.034Z,4.18
2023-05-16T20:15:15.316Z,4.80
2023-05-16T20:17:41.591Z,5.00
2023-05-16T20:20:07.891Z,4.10
2023-05-16T20:22:34.159Z,4.18
2023-05-16T20:25:00.456Z,4.32
2023-05-16T20:27:27.412Z,3.95
2023-05-16T20:29:53.966Z,3.97
2023-05-16T20:32:20.265Z,4.20
2023-05-16T20:34:49.280Z,4.18
2023-05-16T20:37:15.518Z,4.35
2023-05-16T20:39:41.870Z,3.92
2023-05-16T20:42:08.396Z,3.90
2023-05-16T20:44:36.476Z,4.00
2023-05-16T20:47:02.772Z,4.07
2023-05-16T20:49:29.151Z,4.20
2023-05-16T20:51:55.411Z,4.32
2023-05-16T20:54:24.344Z,4.20
2023-05-16T20:56:50.645Z,4.00
2023-05-16T20:59:22.003Z,3.65
2023-05-16T21:01:48.761Z,3.63
2023-05-16T21:04:15.074Z,4.10
2023-05-16T21:06:41.609Z,3.60
2023-05-16T21:09:07.995Z,4.13
2023-05-16T21:11:37.736Z,3.85
2023-05-16T21:14:04.006Z,3.75
2023-05-16T21:16:30.482Z,3.58
2023-05-16T21:19:02.110Z,3.72
2023-05-16T21:21:28.483Z,3.80
2023-05-16T21:23:54.756Z,3.75
2023-05-16T21:26:21.105Z,3.75
2023-05-16T21:31:17.711Z,3.72
2023-05-16T21:33:44.004Z,3.03
2023-05-16T21:36:10.487Z,3.22
2023-05-16T21:38:36.733Z,3.47
2023-05-16T21:41:03.063Z,3.65
2023-05-16T21:43:29.310Z,3.60
2023-05-16T21:45:58.938Z,3.47
2023-05-16T21:48:26.173Z,3.45
2023-05-16T21:50:55.138Z,3.20
2023-05-16T21:53:24.999Z,3.25
2023-05-16T21:55:51.291Z,3.70
2023-05-16T21:58:17.567Z,3.53
2023-05-16T22:00:46.114Z,3.13
2023-05-16T22:05:46.630Z,3.20
2023-05-16T22:08:12.924Z,3.33
2023-05-16T22:10:39.185Z,2.90
2023-05-16T22:13:05.494Z,3.60
2023-05-16T22:15:31.949Z,3.35
2023-05-16T22:17:58.300Z,3.10
2023-05-16T22:20:24.675Z,3.08
2023-05-16T22:22:50.972Z,3.55
2023-05-16T22:25:17.432Z,3.10
2023-05-16T22:27:43.683Z,3.10
2023-05-16T22:30:09.927Z,3.13
2023-05-16T22:32:38.828Z,3.42
2023-05-16T22:35:05.197Z,3.28
2023-05-16T22:37:31.580Z,2.80
2023-05-16T22:40:06.409Z,2.83
2023-05-16T22:42:35.798Z,3.15
2023-05-16T22:45:02.048Z,3.08
2023-05-16T22:47:28.361Z,2.97
2023-05-16T22:50:00.495Z,2.88
2023-05-16T22:52:26.874Z,3.35
2023-05-16T22:54:53.114Z,2.90
2023-05-16T22:57:19.364Z,3.17
2023-05-16T22:59:47.625Z,3.13
2023-05-16T23:02:13.957Z,2.90
2023-05-16T23:04:41.334Z,3.13
2023-05-16T23:07:07.645Z,2.40
2023-05-16T23:09:33.903Z,2.60
2023-05-16T23:12:00.162Z,2.55
2023-05-16T23:14:26.430Z,2.53
2023-05-16T23:16:57.747Z,2.97
2023-05-16T23:19:24.132Z,2.55
2023-05-16T23:21:54.018Z,2.40
2023-05-16T23:24:21.792Z,2.72
2023-05-16T23:26:48.134Z,2.47
2023-05-16T23:29:18.990Z,2.85
2023-05-16T23:31:45.226Z,2.67
2023-05-16T23:34:12.757Z,2.60
2023-05-16T23:36:39.100Z,2.63
2023-05-16T23:39:05.481Z,2.70
2023-05-16T23:41:31.752Z,2.25
2023-05-16T23:43:58.048Z,2.67
2023-05-16T23:46:24.387Z,2.67
2023-05-16T23:48:55.330Z,2.47
2023-05-16T23:51:21.686Z,2.50
2023-05-16T23:53:49.963Z,2.35
2023-05-16T23:56:16.232Z,2.20
2023-05-16T23:58:42.813Z,2.20
